LJPZ/POW METAR and TAF weather

Enter ICAO airport designator
Station Type Date Time Source
LJPZ METAR 2021/07/28 05:00 UTC NOAA

LJPZ 280500Z 12005KT CAVOK 20/17 Q1013


Station Type Date Time Source
LJPZ Decoded METAR 2021/07/28 05:00 UTC NOAA

Portoroz, Slovenia (LJPZ) 45-31N 013-34E
Jul 28, 2021 - 01:00 AM EDT / 2021.07.28 0500 UTC
Wind: from the ESE (120 degrees) at 6 MPH (5 KT):0
Visibility: greater than 7 mile(s):0
Temperature: 68 F (20 C)
Dew Point: 62 F (17 C)
Relative Humidity: 82%
Pressure (altimeter): 29.91 in. Hg (1013 hPa)
ob: LJPZ 280500Z 12005KT CAVOK 20/17 Q1013
cycle: 5

Station Type Date Time Source
LJPZ TAF 2020/09/27 12:21 UTC NOAA

TAF TAF LJPZ 271100Z 2712/2821 30003KT 9999 FEW050 PROB30
TEMPO 2712/2718 -SHRA SCT040TCU BKN070
BECMG 2718/2720 06012G25KT RA

Example: see airport list